Time;durP1;ratioP1;P1;durP2;ratioP2;P2;SDS_P1;SDS_P2;PMS_P1;PMS_P2;Temp;Humidity;BMP_temperature;BMP_pressure;BME280_temperature;BME280_humidity;BME280_pressure;Samples;Min_cycle;Max_cycle;Signal;HPM_P1;HPM_P2
2022/01/13 00:02:04;;;;;;;85.10;38.90;;;;;;;-1.05;80.05;101626.14;105132;1284;142698;-71
2022/01/13 00:04:37;;;;;;;82.90;39.40;;;;;;;-1.03;80.19;101631.68;105162;1284;108984;-70
2022/01/13 00:07:10;;;;;;;84.90;38.00;;;;;;;-1.04;79.86;101631.46;105122;1284;138279;-71
2022/01/13 00:09:43;;;;;;;81.70;37.80;;;;;;;-1.06;80.03;101636.52;105312;1282;97915;-71
2022/01/13 00:12:18;;;;;;;87.30;40.40;;;;;;;-1.05;80.12;101631.77;105314;1283;112485;-70
2022/01/13 00:15:08;;;;;;;79.30;37.50;;;;;;;-1.07;79.89;101628.98;105205;1284;138513;-70
2022/01/13 00:17:58;;;;;;;77.70;36.00;;;;;;;-1.07;80.20;101611.36;105358;1284;107843;-71
2022/01/13 00:20:38;;;;;;;83.70;36.30;;;;;;;-1.08;80.30;101605.70;105180;1283;139008;-71
2022/01/13 00:26:06;;;;;;;83.00;37.40;;;;;;;-1.06;80.20;101602.23;105408;1278;138739;-71
2022/01/13 00:28:38;;;;;;;79.40;37.00;;;;;;;-1.01;80.05;101606.15;105968;1276;108991;-70
2022/01/13 00:31:10;;;;;;;75.50;36.10;;;;;;;-0.98;80.26;101616.98;105786;1277;138629;-71
2022/01/13 00:33:45;;;;;;;84.50;37.40;;;;;;;-0.97;80.09;101617.71;105978;1276;97820;-71
2022/01/13 00:36:17;;;;;;;85.50;38.30;;;;;;;-0.94;79.94;101605.70;105911;1277;97876;-70
2022/01/13 00:38:49;;;;;;;79.30;37.20;;;;;;;-0.92;80.10;101588.17;105804;1276;138831;-70
2022/01/13 00:41:23;;;;;;;75.80;34.60;;;;;;;-0.92;80.15;101575.73;105953;1275;108049;-70
2022/01/13 00:43:55;;;;;;;77.50;35.70;;;;;;;-0.97;79.83;101569.08;105822;1276;139451;-70
2022/01/13 00:46:39;;;;;;;70.50;33.50;;;;;;;-1.00;80.12;101571.85;105879;1277;97831;-70
2022/01/13 00:49:13;;;;;;;67.70;32.00;;;;;;;-1.04;79.84;101563.71;105820;1276;140606;-70
2022/01/13 00:51:45;;;;;;;66.40;30.10;;;;;;;-1.03;80.33;101559.80;105919;1276;112426;-70
2022/01/13 00:54:17;;;;;;;59.90;29.60;;;;;;;-1.01;80.07;101559.35;105898;1277;108129;-70
2022/01/13 00:56:49;;;;;;;57.50;29.30;;;;;;;-0.98;80.18;101549.06;105846;1277;138956;-70
2022/01/13 00:59:21;;;;;;;66.10;29.30;;;;;;;-1.00;79.77;101570.69;105946;1276;98604;-70
2022/01/13 01:01:54;;;;;;;63.40;30.00;;;;;;;-1.01;79.75;101607.67;105839;1277;138420;-70
2022/01/13 01:04:26;;;;;;;66.40;30.70;;;;;;;-0.99;80.00;101628.06;105905;1276;111178;-70
2022/01/13 01:06:58;;;;;;;63.20;30.20;;;;;;;-0.98;80.03;101621.62;105757;1277;138320;-70
2022/01/13 01:09:39;;;;;;;68.20;31.30;;;;;;;-0.97;80.09;101593.81;105948;1276;107799;-71
2022/01/13 01:12:12;;;;;;;63.70;30.70;;;;;;;-0.98;80.08;101562.73;105953;1277;97859;-69
2022/01/13 01:14:49;;;;;;;58.20;27.60;;;;;;;-0.98;80.06;101542.06;105823;1274;138765;-70
2022/01/13 01:17:21;;;;;;;62.10;28.60;;;;;;;-0.99;80.11;101532.29;105989;1276;109527;-70
2022/01/13 01:19:53;;;;;;;62.80;30.10;;;;;;;-0.97;80.33;101525.52;105743;1277;139269;-70
2022/01/13 01:22:39;;;;;;;61.90;29.50;;;;;;;-0.98;80.19;101516.98;105946;1275;107941;-70
2022/01/13 01:25:38;;;;;;;64.00;30.80;;;;;;;-0.99;80.09;101518.46;105897;1276;138318;-70
2022/01/13 01:28:17;;;;;;;65.10;31.10;;;;;;;-1.00;80.31;101503.06;105971;1277;97854;-70
2022/01/13 01:30:53;;;;;;;69.10;30.40;;;;;;;-1.04;80.35;101496.77;105826;1277;138017;-70
2022/01/13 01:33:25;;;;;;;60.70;27.70;;;;;;;-1.08;79.93;101511.29;105933;1274;108884;-70
2022/01/13 01:35:58;;;;;;;54.80;26.20;;;;;;;-1.12;80.27;101519.18;105729;1277;110147;-71
2022/01/13 01:38:30;;;;;;;54.00;24.90;;;;;;;-1.13;80.18;101519.98;105796;1276;138785;-70
2022/01/13 01:41:03;;;;;;;47.70;24.00;;;;;;;-1.14;80.15;101514.52;105933;1277;97960;-70
2022/01/13 01:43:35;;;;;;;48.50;23.20;;;;;;;-1.14;80.26;101531.56;105790;1276;138873;-70
2022/01/13 01:46:07;;;;;;;48.00;24.50;;;;;;;-1.11;80.26;101537.99;105949;1277;109198;-72
2022/01/13 01:48:39;;;;;;;59.30;26.00;;;;;;;-1.07;80.14;101553.52;105847;1275;138465;-70
2022/01/13 01:51:11;;;;;;;52.40;24.60;;;;;;;-1.03;80.05;101549.04;105970;1274;97867;-70
2022/01/13 01:53:43;;;;;;;52.60;25.00;;;;;;;-1.01;80.19;101537.70;106062;1275;98326;-70
2022/01/13 01:56:15;;;;;;;57.00;25.60;;;;;;;-1.00;80.09;101519.77;105861;1276;137989;-70
2022/01/13 01:58:47;;;;;;;54.40;24.70;;;;;;;-1.02;80.24;101509.48;106015;1276;109219;-70
2022/01/13 02:01:20;;;;;;;56.80;25.30;;;;;;;-1.03;80.10;101513.21;105940;1274;138676;-71
2022/01/13 02:03:52;;;;;;;52.80;25.30;;;;;;;-1.02;80.22;101522.62;105886;1274;97844;-71
2022/01/13 02:06:24;;;;;;;50.10;24.10;;;;;;;-1.02;80.20;101531.17;105992;1277;97893;-71
2022/01/13 02:08:57;;;;;;;55.90;26.60;;;;;;;-0.99;80.06;101537.06;105829;1275;139253;-71
2022/01/13 02:11:29;;;;;;;53.00;25.20;;;;;;;-0.95;80.10;101539.77;106030;1276;108967;-71
2022/01/13 02:14:10;;;;;;;58.00;26.20;;;;;;;-0.91;80.34;101536.98;105951;1277;139523;-71
2022/01/13 02:16:44;;;;;;;58.60;26.40;;;;;;;-0.86;80.28;101539.73;105992;1277;98355;-71
2022/01/13 02:19:18;;;;;;;59.20;26.30;;;;;;;-0.81;80.37;101532.56;105888;1277;139960;-71
2022/01/13 02:21:50;;;;;;;60.70;27.20;;;;;;;-0.80;80.36;101505.98;106004;1276;113585;-71
2022/01/13 02:24:22;;;;;;;62.30;28.10;;;;;;;-0.82;80.19;101510.86;105956;1276;108785;-71
2022/01/13 02:26:54;;;;;;;62.20;26.60;;;;;;;-0.86;79.95;101511.41;105850;1276;138650;-71
2022/01/13 02:29:26;;;;;;;62.80;26.50;;;;;;;-0.90;80.10;101518.75;105916;1276;97871;-71
2022/01/13 02:31:58;;;;;;;60.40;27.30;;;;;;;-0.92;80.05;101519.05;105785;1276;138672;-71
2022/01/13 02:34:30;;;;;;;63.00;27.10;;;;;;;-0.92;80.08;101522.45;105975;1274;112182;-71
2022/01/13 02:37:03;;;;;;;58.50;26.20;;;;;;;-0.93;80.08;101524.66;105870;1276;139070;-71
2022/01/13 02:39:35;;;;;;;57.10;25.80;;;;;;;-0.92;80.43;101526.56;105942;1274;108915;-72
2022/01/13 02:42:12;;;;;;;65.00;26.80;;;;;;;-0.90;80.44;101534.48;105900;1274;97844;-70
2022/01/13 02:44:53;;;;;;;66.50;26.80;;;;;;;-0.89;80.27;101529.56;107406;1275;138655;-70
2022/01/13 02:47:47;;;;;;;64.50;26.00;;;;;;;-0.85;80.56;101531.07;106254;1275;112544;-70
2022/01/13 02:50:19;;;;;;;62.40;26.20;;;;;;;-0.85;80.52;101532.11;105867;1276;138707;-70
2022/01/13 02:52:51;;;;;;;67.00;27.10;;;;;;;-0.86;80.34;101530.37;105766;1276;108774;-70
2022/01/13 02:55:25;;;;;;;63.70;25.70;;;;;;;-0.85;80.51;101529.38;105699;1276;138757;-70
2022/01/13 02:57:57;;;;;;;65.20;27.00;;;;;;;-0.85;80.88;101515.88;106023;1275;98211;-70
2022/01/13 03:00:29;;;;;;;61.70;25.70;;;;;;;-0.85;80.78;101504.92;105918;1276;112386;-70
2022/01/13 03:03:01;;;;;;;55.70;24.90;;;;;;;-0.86;80.60;101500.48;105872;1274;139722;-70
2022/01/13 03:05:37;;;;;;;62.60;26.00;;;;;;;-0.84;80.75;101502.76;105988;1276;106516;-71
2022/01/13 03:08:10;;;;;;;58.60;26.10;;;;;;;-0.83;80.93;101497.33;105858;1276;138929;-70
2022/01/13 03:10:42;;;;;;;60.20;25.50;;;;;;;-0.85;80.59;101492.30;107549;1274;96717;-71
2022/01/13 03:13:17;;;;;;;60.40;26.00;;;;;;;-0.88;80.97;101489.49;107417;1276;139023;-71
2022/01/13 03:15:49;;;;;;;62.30;24.40;;;;;;;-0.89;81.22;101485.55;107464;1276;108812;-71
2022/01/13 03:18:20;;;;;;;57.20;23.90;;;;;;;-0.88;81.02;101471.05;107469;1276;108801;-71
2022/01/13 03:20:52;;;;;;;56.30;25.50;;;;;;;-0.90;81.33;101466.19;106638;1276;138843;-71
2022/01/13 03:23:24;;;;;;;56.30;25.20;;;;;;;-0.90;81.53;101459.35;106052;1274;97970;-70
2022/01/13 03:25:57;;;;;;;56.70;23.80;;;;;;;-0.90;81.54;101451.50;105879;1276;140793;-69
2022/01/13 03:28:31;;;;;;;58.60;24.30;;;;;;;-0.90;81.67;101449.98;105908;1276;109421;-70
2022/01/13 03:31:03;;;;;;;56.10;23.70;;;;;;;-0.89;82.04;101455.29;105800;1276;140253;-70
2022/01/13 03:33:36;;;;;;;60.20;23.70;;;;;;;-0.90;81.97;101456.27;106022;1276;98449;-70
2022/01/13 03:36:08;;;;;;;57.80;24.30;;;;;;;-0.88;82.18;101459.60;105938;1274;97823;-70
2022/01/13 03:38:41;;;;;;;58.00;23.20;;;;;;;-0.85;82.27;101454.92;105821;1276;138530;-69
2022/01/13 03:41:13;;;;;;;52.60;22.50;;;;;;;-0.82;82.43;101443.91;105914;1276;107879;-70
2022/01/13 03:43:44;;;;;;;47.90;20.40;;;;;;;-0.80;82.21;101436.80;105870;1275;138718;-69
2022/01/13 03:46:16;;;;;;;48.10;20.40;;;;;;;-0.79;82.38;101431.90;105972;1276;97871;-69
2022/01/13 03:48:49;;;;;;;53.90;20.90;;;;;;;-0.78;82.26;101423.73;105848;1276;140465;-70
2022/01/13 03:51:21;;;;;;;43.40;19.90;;;;;;;-0.77;82.47;101417.61;105992;1274;112073;-70
2022/01/13 03:54:46;;;;;;;41.00;18.50;;;;;;;-0.76;82.29;101405.52;105962;1275;109153;-70
2022/01/13 03:57:56;;;;;;;43.00;17.90;;;;;;;-0.75;82.61;101404.53;106675;1281;139879;-71
2022/01/13 04:01:07;;;;;;;43.40;18.70;;;;;;;-0.74;82.45;101396.54;106791;1281;96283;-71
2022/01/13 04:03:40;;;;;;;44.70;19.70;;;;;;;-0.72;82.48;101397.65;105702;1282;98022;-69
2022/01/13 04:06:40;;;;;;;42.80;19.20;;;;;;;-0.72;82.29;101391.66;105460;1281;110690;-69
2022/01/13 04:09:36;;;;;;;45.80;19.90;;;;;;;-0.73;82.76;101391.10;105371;1281;139194;-70
2022/01/13 04:12:12;;;;;;;42.90;18.90;;;;;;;-0.73;82.73;101391.95;105400;1282;107891;-70
2022/01/13 04:15:01;;;;;;;44.30;21.00;;;;;;;-0.70;82.79;101385.77;105320;1282;138877;-70
2022/01/13 04:17:33;;;;;;;43.80;19.30;;;;;;;-0.65;82.94;101382.81;105325;1282;97929;-70
2022/01/13 04:20:06;;;;;;;44.90;19.70;;;;;;;-0.64;82.97;101380.63;105260;1284;138844;-70
2022/01/13 04:22:39;;;;;;;47.50;21.80;;;;;;;-0.63;82.95;101369.77;105354;1284;109146;-70
2022/01/13 04:25:11;;;;;;;45.80;20.30;;;;;;;-0.59;83.17;101359.42;105225;1284;108850;-70
2022/01/13 04:27:44;;;;;;;40.70;18.80;;;;;;;-0.56;83.10;101350.29;105100;1284;138839;-70
2022/01/13 04:30:34;;;;;;;44.70;19.40;;;;;;;-0.52;83.11;101345.11;105545;1281;97829;-70
2022/01/13 04:33:07;;;;;;;40.70;19.10;;;;;;;-0.48;83.38;101345.61;105302;1282;137925;-70
2022/01/13 04:35:39;;;;;;;41.50;20.60;;;;;;;-0.47;83.31;101341.86;105927;1276;107498;-70
2022/01/13 04:38:11;;;;;;;42.90;20.90;;;;;;;-0.46;83.34;101343.92;105814;1276;138459;-70
2022/01/13 04:40:47;;;;;;;41.40;19.00;;;;;;;-0.47;83.66;101341.52;105842;1276;114819;-70
2022/01/13 04:43:19;;;;;;;38.70;18.60;;;;;;;-0.48;83.40;101337.58;105914;1276;97830;-69
2022/01/13 04:45:51;;;;;;;40.80;18.80;;;;;;;-0.48;83.48;101343.70;105797;1275;138309;-68
2022/01/13 04:48:24;;;;;;;41.10;18.40;;;;;;;-0.47;83.88;101352.11;105814;1276;107816;-69
2022/01/13 04:50:56;;;;;;;34.40;17.50;;;;;;;-0.43;83.93;101349.99;105792;1276;138885;-69
2022/01/13 04:53:28;;;;;;;33.40;16.50;;;;;;;-0.41;84.38;101354.17;105756;1276;97843;-70
2022/01/13 04:56:08;;;;;;;30.20;16.60;;;;;;;-0.40;84.22;101352.15;105803;1276;139637;-70
2022/01/13 04:58:40;;;;;;;31.60;16.30;;;;;;;-0.39;83.96;101351.66;106010;1275;111575;-70
2022/01/13 05:01:12;;;;;;;31.00;16.60;;;;;;;-0.40;84.34;101332.00;105884;1276;109271;-70
2022/01/13 05:03:44;;;;;;;30.30;15.70;;;;;;;-0.38;84.31;101321.96;105820;1276;139494;-70
2022/01/13 05:06:18;;;;;;;30.90;15.70;;;;;;;-0.38;84.35;101318.38;105896;1276;96807;-70
2022/01/13 05:08:50;;;;;;;29.60;15.50;;;;;;;-0.36;84.48;101314.19;106936;1276;138601;-70
2022/01/13 05:11:22;;;;;;;25.40;13.60;;;;;;;-0.34;84.59;101318.02;105954;1275;112332;-70
2022/01/13 05:13:55;;;;;;;24.10;14.30;;;;;;;-0.32;84.67;101327.28;105762;1276;138356;-70
2022/01/13 05:16:33;;;;;;;25.00;14.10;;;;;;;-0.35;84.61;101335.40;105844;1276;107685;-70
2022/01/13 05:19:14;;;;;;;28.40;15.20;;;;;;;-0.37;84.45;101334.46;105808;1276;97851;-70
2022/01/13 05:21:55;;;;;;;27.90;15.60;;;;;;;-0.39;84.79;101333.55;105765;1276;139436;-70
2022/01/13 05:24:28;;;;;;;26.60;14.20;;;;;;;-0.39;84.99;101338.85;105893;1276;112569;-70
2022/01/13 05:27:05;;;;;;;25.60;13.80;;;;;;;-0.39;85.07;101332.52;105782;1276;138691;-69
2022/01/13 05:29:38;;;;;;;27.40;13.80;;;;;;;-0.42;85.13;101326.29;105977;1276;108196;-69
2022/01/13 05:32:10;;;;;;;20.00;12.20;;;;;;;-0.42;85.46;101319.98;105873;1276;141385;-70
2022/01/13 05:34:42;;;;;;;23.10;13.60;;;;;;;-0.41;85.61;101310.10;105951;1276;98053;-72
2022/01/13 05:37:15;;;;;;;22.80;13.10;;;;;;;-0.41;85.25;101319.65;105884;1276;112899;-70
2022/01/13 05:39:47;;;;;;;21.40;12.80;;;;;;;-0.41;85.10;101308.20;105869;1276;138609;-70
2022/01/13 05:42:20;;;;;;;21.00;11.90;;;;;;;-0.42;85.10;101294.33;105832;1276;107961;-70
2022/01/13 05:44:52;;;;;;;21.50;11.30;;;;;;;-0.44;85.36;101283.02;105735;1276;138985;-69
2022/01/13 05:47:24;;;;;;;21.50;12.00;;;;;;;-0.43;85.30;101283.39;105957;1276;97774;-70
2022/01/13 05:49:56;;;;;;;23.70;12.70;;;;;;;-0.42;85.50;101281.18;105712;1276;138843;-70
2022/01/13 05:52:28;;;;;;;21.00;12.60;;;;;;;-0.41;85.88;101282.05;105944;1276;107934;-69
2022/01/13 05:55:02;;;;;;;21.60;12.10;;;;;;;-0.41;85.66;101280.19;105873;1276;109159;-70
2022/01/13 05:57:34;;;;;;;20.90;12.50;;;;;;;-0.41;85.79;101281.71;107348;1276;138780;-70
2022/01/13 06:00:08;;;;;;;22.20;11.80;;;;;;;-0.41;85.64;101268.23;107481;1276;96604;-69
2022/01/13 06:02:41;;;;;;;;;;;;;;;-0.38;85.98;101260.27;106617;1276;138613;-68
2022/01/13 06:05:15;;;;;;;22.20;11.60;;;;;;;-0.38;85.81;101260.95;105918;1276;106742;-69
2022/01/13 06:07:47;;;;;;;21.30;12.20;;;;;;;-0.39;85.92;101260.08;105852;1276;139418;-71
2022/01/13 06:10:19;;;;;;;22.00;11.90;;;;;;;-0.38;86.09;101263.52;105881;1276;97863;-69
2022/01/13 06:12:53;;;;;;;20.30;12.00;;;;;;;-0.37;86.06;101257.20;105854;1276;97821;-69
2022/01/13 06:15:27;;;;;;;20.90;12.20;;;;;;;-0.37;86.06;101266.95;105845;1276;138639;-70
2022/01/13 06:17:59;;;;;;;19.60;11.30;;;;;;;-0.38;86.25;101259.77;105915;1276;108857;-70
2022/01/13 06:20:31;;;;;;;18.30;11.10;;;;;;;-0.39;86.49;101257.52;105817;1276;139069;-69
2022/01/13 06:23:04;;;;;;;20.20;12.40;;;;;;;-0.39;86.64;101250.85;105905;1276;97812;-70
2022/01/13 06:25:37;;;;;;;22.30;13.30;;;;;;;-0.38;86.44;101244.36;105823;1276;138847;-69
2022/01/13 06:28:09;;;;;;;21.80;12.90;;;;;;;-0.36;86.43;101237.60;105948;1276;112242;-70
2022/01/13 06:30:45;;;;;;;16.10;9.70;;;;;;;-0.35;86.95;101221.44;105766;1277;108863;-70
2022/01/13 06:33:17;;;;;;;21.40;12.20;;;;;;;-0.33;86.69;101208.14;105821;1276;139153;-70
2022/01/13 06:35:48;;;;;;;20.70;12.10;;;;;;;-0.31;86.74;101187.35;105964;1276;97887;-69
2022/01/13 06:38:20;;;;;;;20.20;11.60;;;;;;;-0.31;86.92;101177.95;105802;1276;138806;-69
2022/01/13 06:40:53;;;;;;;19.30;12.40;;;;;;;-0.31;86.68;101178.48;105873;1276;112523;-69
2022/01/13 06:43:25;;;;;;;20.50;11.90;;;;;;;-0.29;86.68;101171.66;105898;1276;108748;-71
2022/01/13 06:45:57;;;;;;;20.00;12.10;;;;;;;-0.27;86.47;101167.95;105750;1276;138770;-69
2022/01/13 06:48:29;;;;;;;19.50;11.70;;;;;;;-0.25;86.59;101167.84;105988;1276;97935;-70
2022/01/13 06:51:01;;;;;;;19.40;12.80;;;;;;;-0.23;86.77;101172.15;105889;1275;139896;-70
2022/01/13 06:53:33;;;;;;;20.00;12.10;;;;;;;-0.20;86.54;101182.48;105955;1275;111811;-70
2022/01/13 06:56:07;;;;;;;20.30;12.30;;;;;;;-0.19;86.69;101191.06;105793;1276;139982;-70
2022/01/13 06:58:39;;;;;;;17.90;12.20;;;;;;;-0.19;86.61;101190.05;105854;1276;109390;-71
2022/01/13 07:01:11;;;;;;;19.20;11.60;;;;;;;-0.16;86.90;101203.13;105854;1276;97897;-70
2022/01/13 07:03:44;;;;;;;20.80;12.80;;;;;;;-0.13;86.72;101218.42;105801;1276;138753;-69
2022/01/13 07:06:16;;;;;;;18.30;11.00;;;;;;;-0.11;87.05;101209.58;105940;1276;112061;-70
2022/01/13 07:08:48;;;;;;;20.20;11.90;;;;;;;-0.12;86.82;101203.75;106805;1276;139263;-71
2022/01/13 07:11:20;;;;;;;18.90;12.50;;;;;;;-0.09;86.84;101214.42;107428;1276;107725;-70
2022/01/13 07:13:52;;;;;;;20.50;12.10;;;;;;;-0.08;87.08;101217.70;107296;1276;139080;-71
2022/01/13 07:16:24;;;;;;;21.80;12.60;;;;;;;-0.07;86.81;101221.48;106013;1275;97871;-70
2022/01/13 07:18:56;;;;;;;19.00;11.80;;;;;;;-0.05;86.92;101225.14;105825;1277;111941;-70
2022/01/13 07:21:28;;;;;;;22.40;13.40;;;;;;;-0.03;86.93;101210.80;105793;1276;139023;-70
2022/01/13 07:24:00;;;;;;;20.20;12.70;;;;;;;-0.01;87.08;101207.10;105854;1276;107006;-70
2022/01/13 07:26:32;;;;;;;19.30;12.60;;;;;;;0.01;86.84;101210.23;105768;1275;140608;-70
2022/01/13 07:29:05;;;;;;;20.00;12.90;;;;;;;0.03;86.87;101203.63;105875;1276;97848;-70
2022/01/13 07:31:39;;;;;;;19.00;12.70;;;;;;;0.04;87.00;101202.80;105706;1276;140650;-70
2022/01/13 07:34:11;;;;;;;21.70;13.10;;;;;;;0.05;86.93;101191.04;105904;1275;108962;-70
2022/01/13 07:36:47;;;;;;;20.90;13.40;;;;;;;0.08;86.99;101202.89;105806;1276;108841;-71
2022/01/13 07:39:19;;;;;;;24.30;14.40;;;;;;;0.11;87.18;101208.45;105755;1276;138788;-71
2022/01/13 07:41:51;;;;;;;21.90;14.40;;;;;;;0.13;86.99;101220.27;105777;1277;97748;-71
2022/01/13 07:44:23;;;;;;;24.20;15.10;;;;;;;0.13;86.90;101216.19;105771;1276;138730;-70
2022/01/13 07:46:56;;;;;;;23.20;14.50;;;;;;;0.14;86.86;101211.26;105879;1276;108268;-71
2022/01/13 07:49:28;;;;;;;25.00;16.20;;;;;;;0.15;87.03;101225.14;105706;1276;107939;-69
2022/01/13 07:52:00;;;;;;;25.50;15.40;;;;;;;0.16;87.19;101232.31;105612;1276;139279;-69
2022/01/13 07:54:32;;;;;;;26.70;15.30;;;;;;;0.17;87.14;101230.29;105793;1276;98018;-70
2022/01/13 07:57:06;;;;;;;29.20;16.60;;;;;;;0.18;87.28;101226.23;105582;1276;138780;-69
2022/01/13 07:59:38;;;;;;;28.30;16.20;;;;;;;0.17;87.39;101222.62;105876;1276;107865;-70
2022/01/13 08:02:10;;;;;;;27.30;15.90;;;;;;;0.18;87.39;101216.50;105669;1276;140873;-69
2022/01/13 08:04:42;;;;;;;32.20;17.20;;;;;;;0.20;87.49;101210.58;105787;1276;97998;-71
2022/01/13 08:07:14;;;;;;;30.90;17.10;;;;;;;0.19;87.51;101210.38;105921;1276;97851;-71
2022/01/13 08:09:46;;;;;;;29.80;17.10;;;;;;;0.19;87.43;101209.84;105792;1276;138770;-71
2022/01/13 08:12:19;;;;;;;30.60;17.20;;;;;;;0.20;87.70;101212.95;105516;1277;109924;-71
2022/01/13 08:14:51;;;;;;;28.60;17.00;;;;;;;0.22;87.86;101219.86;105795;1276;139082;-71
2022/01/13 08:20:15;;;;;;;31.30;18.00;;;;;;;0.24;87.76;101221.78;105132;1282;138974;-70
2022/01/13 08:22:47;;;;;;;31.10;18.50;;;;;;;0.26;88.16;101215.33;105301;1282;111601;-70
2022/01/13 08:25:20;;;;;;;29.40;17.30;;;;;;;0.29;87.99;101212.66;105274;1282;108045;-70
2022/01/13 08:27:53;;;;;;;30.80;18.20;;;;;;;0.32;87.90;101213.57;105112;1284;140586;-71
2022/01/13 08:30:25;;;;;;;30.70;17.90;;;;;;;0.32;88.14;101210.52;105285;1284;98578;-70
2022/01/13 08:32:57;;;;;;;34.10;18.40;;;;;;;0.36;87.91;101214.19;105642;1282;140434;-71
2022/01/13 08:35:29;;;;;;;29.20;17.00;;;;;;;0.38;88.09;101226.05;105124;1282;112623;-72
2022/01/13 08:38:08;;;;;;;28.30;17.40;;;;;;;0.40;88.34;101222.02;105348;1283;139137;-72
2022/01/13 08:40:39;;;;;;;32.10;17.70;;;;;;;0.42;88.40;101220.02;106616;1282;107545;-72
2022/01/13 08:43:12;;;;;;;28.60;17.10;;;;;;;0.44;88.04;101231.00;106642;1282;96172;-71
2022/01/13 08:45:44;;;;;;;29.50;17.30;;;;;;;0.45;88.00;101231.89;106498;1282;140139;-70
2022/01/13 08:48:16;;;;;;;30.10;17.60;;;;;;;0.46;87.99;101234.46;105994;1283;112825;-70
2022/01/13 08:50:49;;;;;;;29.00;17.80;;;;;;;0.47;88.25;101225.60;104945;1284;138917;-70
2022/01/13 08:53:22;;;;;;;27.70;16.40;;;;;;;0.51;88.46;101213.02;105115;1283;109219;-71
2022/01/13 08:55:55;;;;;;;25.80;16.30;;;;;;;0.54;88.11;101214.16;105199;1284;140024;-70
2022/01/13 08:58:27;;;;;;;29.50;17.10;;;;;;;0.58;88.26;101198.66;106793;1276;96262;-70
2022/01/13 09:00:59;;;;;;;28.00;16.00;;;;;;;0.62;88.25;101192.23;107324;1276;111316;-71
2022/01/13 09:03:32;;;;;;;26.00;16.10;;;;;;;0.66;88.23;101180.02;107404;1276;140291;-71
2022/01/13 09:06:05;;;;;;;26.40;15.30;;;;;;;0.70;88.27;101178.55;107377;1275;108928;-70
2022/01/13 09:08:39;;;;;;;25.20;15.90;;;;;;;0.74;88.16;101186.89;107295;1275;138819;-71
2022/01/13 09:11:12;;;;;;;27.40;15.50;;;;;;;0.76;88.14;101182.30;106268;1276;97880;-70
2022/01/13 09:13:44;;;;;;;22.10;14.30;;;;;;;0.81;88.42;101186.52;105792;1276;138492;-71
2022/01/13 09:16:17;;;;;;;27.10;16.70;;;;;;;0.84;88.08;101188.98;107465;1275;109052;-71
2022/01/13 09:19:07;;;;;;;28.90;17.00;;;;;;;0.85;87.84;101183.02;105837;1276;108915;-71
2022/01/13 09:21:42;;;;;;;28.20;16.20;;;;;;;0.85;87.86;101190.20;105706;1276;138085;-70
2022/01/13 09:24:20;;;;;;;28.60;16.80;;;;;;;0.84;87.74;101198.06;105852;1278;98482;-70
2022/01/13 09:26:53;;;;;;;24.70;15.60;;;;;;;0.86;87.88;101191.77;105817;1276;139448;-71
2022/01/13 09:29:25;;;;;;;27.60;15.90;;;;;;;0.89;87.93;101198.84;105899;1274;108862;-70
2022/01/13 09:31:57;;;;;;;26.50;15.40;;;;;;;0.90;88.00;101192.39;105805;1275;140726;-71
2022/01/13 09:34:29;;;;;;;26.80;15.50;;;;;;;0.93;88.02;101196.73;105909;1276;98635;-71
2022/01/13 09:37:01;;;;;;;30.40;16.80;;;;;;;0.97;88.04;101197.33;105977;1276;97863;-71
2022/01/13 09:39:33;;;;;;;27.00;17.00;;;;;;;0.99;87.89;101187.27;105875;1276;137820;-70
2022/01/13 09:42:10;;;;;;;28.30;16.60;;;;;;;1.02;87.85;101174.81;105795;1276;108893;-70
2022/01/13 09:44:42;;;;;;;27.50;17.20;;;;;;;1.02;87.80;101165.73;105796;1275;141067;-70
2022/01/13 09:47:15;;;;;;;27.90;16.20;;;;;;;1.01;87.79;101167.43;105766;1274;97949;-69
2022/01/13 09:49:47;;;;;;;26.90;16.20;;;;;;;1.01;87.85;101154.93;105623;1276;139737;-70
2022/01/13 09:52:22;;;;;;;30.90;16.90;;;;;;;1.02;87.84;101156.15;105582;1275;112656;-71
2022/01/13 09:54:55;;;;;;;25.40;15.50;;;;;;;1.08;87.90;101151.66;105563;1275;108416;-70
2022/01/13 09:57:27;;;;;;;26.50;15.60;;;;;;;1.12;87.84;101145.42;105379;1276;138770;-69
2022/01/13 10:00:00;;;;;;;25.50;15.40;;;;;;;1.18;87.82;101138.50;105630;1276;97927;-68
2022/01/13 10:02:31;;;;;;;25.30;15.70;;;;;;;1.23;87.62;101132.59;105752;1276;141961;-70
2022/01/13 10:05:04;;;;;;;27.70;17.30;;;;;;;1.23;87.59;101132.77;105888;1274;111766;-70
2022/01/13 10:07:38;;;;;;;27.80;17.00;;;;;;;1.27;87.55;101131.49;105567;1275;109086;-70
2022/01/13 10:10:31;;;;;;;31.70;16.90;;;;;;;1.26;87.53;101134.55;105805;1276;108198;-70
2022/01/13 10:13:07;;;;;;;26.60;13.80;;;;;;;1.22;87.34;101132.75;105769;1276;97844;-70
2022/01/13 10:18:44;;;;;;;24.90;14.90;;;;;;;1.23;87.63;101114.27;105450;1277;112425;-70
2022/01/13 10:21:19;;;;;;;29.50;16.10;;;;;;;1.24;87.43;101114.62;105618;1276;140303;-69
2022/01/13 10:24:09;;;;;;;27.40;16.30;;;;;;;1.26;87.68;101111.59;105563;1275;109020;-69
2022/01/13 10:26:56;;;;;;;26.20;15.40;;;;;;;1.30;87.69;101112.37;105494;1275;141081;-69
2022/01/13 10:29:40;;;;;;;25.60;15.90;;;;;;;1.35;87.72;101103.20;105833;1276;97876;-69
2022/01/13 10:32:14;;;;;;;26.50;15.40;;;;;;;1.40;87.68;101104.31;107492;1276;139968;-70
2022/01/13 10:34:48;;;;;;;28.30;15.70;;;;;;;1.38;87.69;101104.64;107231;1276;109058;-70
2022/01/13 10:37:30;;;;;;;25.90;15.10;;;;;;;1.38;87.65;101101.70;107148;1275;107832;-70
2022/01/13 10:40:07;;;;;;;22.40;14.10;;;;;;;1.37;87.67;101093.12;106879;1274;139095;-69
2022/01/13 10:45:37;;;;;;;23.30;13.50;;;;;;;1.39;87.69;101087.00;107359;1275;139106;-70
2022/01/13 10:48:13;;;;;;;21.80;13.20;;;;;;;1.43;87.67;101089.46;107445;1276;109036;-70
2022/01/13 10:50:48;;;;;;;23.00;13.50;;;;;;;1.45;87.76;101094.49;107218;1274;139858;-70
2022/01/13 10:53:22;;;;;;;24.20;13.10;;;;;;;1.49;87.62;101091.13;107204;1276;96526;-70
2022/01/13 10:55:57;;;;;;;21.00;13.40;;;;;;;1.51;87.80;101087.05;107354;1275;97166;-70
2022/01/13 10:58:31;;;;;;;24.30;13.90;;;;;;;1.51;87.78;101088.09;107308;1275;139486;-70
2022/01/13 11:01:05;;;;;;;23.70;13.80;;;;;;;1.50;87.68;101089.79;107085;1275;109805;-70
2022/01/13 11:03:43;;;;;;;22.90;13.60;;;;;;;1.51;87.85;101078.48;105641;1276;138845;-70
2022/01/13 11:06:16;;;;;;;25.10;14.20;;;;;;;1.52;87.72;101077.13;105395;1276;97881;-70
2022/01/13 11:08:50;;;;;;;21.90;13.00;;;;;;;1.54;87.86;101060.02;105456;1276;140411;-69
2022/01/13 11:11:33;;;;;;;22.20;13.50;;;;;;;1.58;87.68;101055.98;105860;1276;112568;-70
2022/01/13 11:14:10;;;;;;;24.80;12.90;;;;;;;1.61;87.81;101050.38;105808;1276;109041;-70
2022/01/13 11:16:42;;;;;;;22.30;13.60;;;;;;;1.64;87.81;101041.01;105551;1276;139870;-70
2022/01/13 11:19:17;;;;;;;20.50;12.30;;;;;;;1.66;87.78;101033.84;105841;1276;97849;-70
2022/01/13 11:21:50;;;;;;;22.50;13.50;;;;;;;1.68;87.89;101024.77;105663;1276;138370;-70
2022/01/13 11:24:23;;;;;;;21.40;12.70;;;;;;;1.69;87.77;101022.23;105905;1276;112592;-70
2022/01/13 11:26:56;;;;;;;22.10;12.90;;;;;;;1.67;87.76;101012.09;106056;1276;139571;-70
2022/01/13 11:29:29;;;;;;;24.80;13.20;;;;;;;1.66;87.80;101010.02;107364;1276;107745;-70
2022/01/13 11:32:02;;;;;;;19.80;11.60;;;;;;;1.64;87.85;101013.76;107441;1275;95990;-70
2022/01/13 11:34:34;;;;;;;20.70;12.20;;;;;;;1.67;88.03;101009.33;107323;1276;139457;-71
2022/01/13 11:37:06;;;;;;;21.40;12.40;;;;;;;1.70;88.05;101003.73;107325;1276;112439;-70
2022/01/13 11:39:41;;;;;;;20.90;11.80;;;;;;;1.73;88.00;101006.17;105829;1276;138810;-69
2022/01/13 11:42:15;;;;;;;22.50;13.00;;;;;;;1.76;87.93;101005.02;105584;1276;109106;-68
2022/01/13 11:45:12;;;;;;;20.90;12.80;;;;;;;1.79;87.85;101001.83;105526;1276;139288;-70